createdAt,value
2017-09-09T00:00:40.243Z,95.47
2017-09-09T00:01:40.181Z,95.26
2017-09-09T00:02:40.213Z,95.45
2017-09-09T00:03:40.147Z,95.42
2017-09-09T00:04:40.169Z,95.88
2017-09-09T00:05:40.208Z,96.07
2017-09-09T00:06:40.170Z,96.47
2017-09-09T00:07:40.192Z,96.72
2017-09-09T00:08:40.238Z,96.07
2017-09-09T00:09:40.205Z,96.13
2017-09-09T00:10:40.202Z,95.88
2017-09-09T00:11:40.188Z,95.88
2017-09-09T00:12:40.189Z,95.61
2017-09-09T00:13:40.189Z,95.94
2017-09-09T00:14:40.255Z,95.77
2017-09-09T00:15:40.250Z,94.50
2017-09-09T00:16:40.250Z,94.56
2017-09-09T00:17:40.152Z,94.61
2017-09-09T00:18:40.185Z,94.45
2017-09-09T00:19:40.192Z,94.29
2017-09-09T00:20:40.216Z,94.04
2017-09-09T00:21:40.185Z,94.04
2017-09-09T00:22:40.190Z,94.12
2017-09-09T00:23:40.253Z,92.84
2017-09-09T00:24:40.223Z,92.22
2017-09-09T00:25:40.244Z,92.46
2017-09-09T00:26:40.194Z,92.27
2017-09-09T00:27:40.197Z,92.35
2017-09-09T00:28:40.197Z,91.97
2017-09-09T00:29:40.158Z,91.76
2017-09-09T00:30:40.218Z,92.11
2017-09-09T00:31:40.258Z,92.35
2017-09-09T00:32:40.235Z,91.52
2017-09-09T00:33:40.169Z,92.40
2017-09-09T00:34:40.220Z,92.08
2017-09-09T00:35:40.254Z,92.22
2017-09-09T00:36:40.263Z,92.38
2017-09-09T00:37:40.265Z,92.14
2017-09-09T00:38:40.258Z,92.27
2017-09-09T00:39:40.197Z,91.71
2017-09-09T00:40:40.267Z,91.47
2017-09-09T00:41:40.258Z,91.82
2017-09-09T00:42:40.207Z,91.76
2017-09-09T00:43:40.270Z,92.01
2017-09-09T00:44:40.225Z,91.90
2017-09-09T00:45:40.266Z,91.73
2017-09-09T00:46:40.224Z,91.60
2017-09-09T00:47:40.178Z,91.55
2017-09-09T00:48:40.259Z,91.44
2017-09-09T00:49:40.209Z,91.41
2017-09-09T00:50:40.225Z,91.79
2017-09-09T00:51:40.196Z,91.79
2017-09-09T00:52:40.236Z,91.44
2017-09-09T00:53:40.267Z,92.03
2017-09-09T00:54:40.273Z,91.20
2017-09-09T00:55:40.236Z,91.49
2017-09-09T00:56:40.208Z,90.85
2017-09-09T00:57:40.215Z,90.71
2017-09-09T00:58:40.277Z,91.07
2017-09-09T00:59:40.270Z,90.80
2017-09-09T01:00:40.218Z,90.85
2017-09-09T01:01:40.211Z,91.28
2017-09-09T01:02:40.242Z,90.31
2017-09-09T01:03:40.203Z,90.61
2017-09-09T01:04:40.182Z,90.85
2017-09-09T01:05:40.273Z,90.13
2017-09-09T01:06:40.280Z,89.80
2017-09-09T01:07:40.283Z,89.70
2017-09-09T01:08:40.275Z,89.94
2017-09-09T01:09:40.246Z,90.28
2017-09-09T01:10:40.189Z,88.92
2017-09-09T01:11:40.283Z,89.35
2017-09-09T01:12:40.184Z,88.60
2017-09-09T01:13:40.217Z,88.95
2017-09-09T01:14:40.284Z,88.97
2017-09-09T01:15:40.194Z,88.97
2017-09-09T01:16:40.222Z,88.36
2017-09-09T01:17:40.259Z,88.46
2017-09-09T01:18:40.285Z,88.31
2017-09-09T01:19:40.249Z,88.50
2017-09-09T01:20:40.191Z,88.52
2017-09-09T01:21:40.199Z,88.92
2017-09-09T01:22:40.249Z,88.01
2017-09-09T01:23:40.254Z,88.25
2017-09-09T01:24:40.256Z,88.57
2017-09-09T01:25:40.263Z,88.60
2017-09-09T01:26:40.192Z,88.36
2017-09-09T01:27:40.257Z,88.28
2017-09-09T01:28:40.205Z,88.46
2017-09-09T01:29:40.235Z,88.76
2017-09-09T01:30:40.196Z,87.96
2017-09-09T01:31:40.198Z,88.28
2017-09-09T01:32:40.264Z,88.25
2017-09-09T01:33:40.288Z,88.09
2017-09-09T01:34:40.269Z,88.09
2017-09-09T01:35:40.229Z,88.17
2017-09-09T01:36:40.237Z,88.65
2017-09-09T01:37:40.302Z,88.20
2017-09-09T01:38:40.256Z,88.01
2017-09-09T01:39:40.273Z,88.23
2017-09-09T01:40:40.241Z,88.39
2017-09-09T01:41:40.240Z,88.09
2017-09-09T01:42:40.312Z,88.09
2017-09-09T01:43:40.241Z,88.12
2017-09-09T01:44:40.214Z,88.31
2017-09-09T01:45:40.233Z,87.90
2017-09-09T01:46:40.295Z,87.88
2017-09-09T01:47:40.289Z,87.74
2017-09-09T01:48:40.246Z,87.67
2017-09-09T01:49:40.234Z,87.93
2017-09-09T01:50:40.313Z,88.25
2017-09-09T01:51:40.301Z,87.98
2017-09-09T01:52:40.301Z,87.40
2017-09-09T01:53:40.281Z,87.51
2017-09-09T01:54:40.249Z,87.93
2017-09-09T01:55:40.310Z,87.56
2017-09-09T01:56:40.345Z,87.45
2017-09-09T01:57:40.247Z,87.82
2017-09-09T01:58:40.315Z,87.45
2017-09-09T01:59:40.305Z,87.40
2017-09-09T02:00:40.221Z,87.26
2017-09-09T02:01:40.266Z,87.53
2017-09-09T02:02:40.312Z,88.01
2017-09-09T02:03:40.278Z,88.23
2017-09-09T02:04:40.294Z,88.31
2017-09-09T02:05:40.225Z,88.50
2017-09-09T02:06:40.244Z,88.62
2017-09-09T02:07:40.251Z,88.52
2017-09-09T02:08:40.279Z,89.11
2017-09-09T02:09:40.222Z,89.45
2017-09-09T02:10:40.309Z,89.72
2017-09-09T02:11:40.289Z,90.45
2017-09-09T02:12:40.284Z,90.34
2017-09-09T02:13:40.245Z,90.61
2017-09-09T02:14:40.260Z,90.80
2017-09-09T02:15:40.277Z,89.94
2017-09-09T02:16:40.286Z,91.09
2017-09-09T02:17:40.293Z,90.71
2017-09-09T02:18:40.281Z,90.90
2017-09-09T02:19:40.253Z,91.28
2017-09-09T02:20:44.682Z,90.85
2017-09-09T02:21:40.256Z,90.71
2017-09-09T02:22:40.289Z,90.80
2017-09-09T02:23:40.316Z,90.77
2017-09-09T02:24:40.226Z,91.22
2017-09-09T02:25:40.230Z,90.42
2017-09-09T02:26:40.330Z,90.98
2017-09-09T02:27:40.228Z,91.14
2017-09-09T02:28:40.256Z,90.80
2017-09-09T02:29:40.294Z,90.66
2017-09-09T02:30:40.263Z,91.01
2017-09-09T02:31:40.334Z,90.82
2017-09-09T02:32:40.327Z,90.47
2017-09-09T02:33:40.270Z,90.23
2017-09-09T02:34:40.242Z,90.07
2017-09-09T02:35:40.302Z,89.80
2017-09-09T02:37:40.236Z,90.20
2017-09-09T02:38:40.328Z,89.99
2017-09-09T02:39:40.280Z,89.80
2017-09-09T02:40:40.330Z,90.05
2017-09-09T02:41:40.302Z,89.78
2017-09-09T02:42:40.246Z,89.32
2017-09-09T02:43:40.327Z,89.67
2017-09-09T02:44:40.278Z,89.62
2017-09-09T02:45:40.301Z,89.70
2017-09-09T02:46:40.249Z,89.43
2017-09-09T02:47:40.277Z,89.88
2017-09-09T02:48:40.341Z,89.80
2017-09-09T02:49:40.278Z,89.80
2017-09-09T02:50:40.245Z,89.64
2017-09-09T02:51:40.269Z,89.51
2017-09-09T02:52:40.268Z,89.54
2017-09-09T02:53:40.270Z,89.48
2017-09-09T02:54:40.280Z,89.45
2017-09-09T02:55:40.269Z,89.27
2017-09-09T02:56:40.289Z,89.27
2017-09-09T02:57:40.275Z,89.11
2017-09-09T02:58:40.347Z,89.00
2017-09-09T02:59:40.281Z,88.92
2017-09-09T03:00:40.351Z,89.54
2017-09-09T03:01:40.310Z,89.19
2017-09-09T03:02:40.259Z,88.65
2017-09-09T03:03:40.289Z,89.00
2017-09-09T03:04:40.350Z,88.76
2017-09-09T03:05:40.315Z,88.31
2017-09-09T03:06:40.283Z,88.57
2017-09-09T03:07:40.283Z,88.65
2017-09-09T03:08:40.345Z,88.44
2017-09-09T03:09:40.298Z,88.25
2017-09-09T03:10:40.325Z,88.41
2017-09-09T03:11:40.292Z,88.17
2017-09-09T03:12:40.281Z,87.88
2017-09-09T03:13:40.318Z,87.82
2017-09-09T03:14:40.264Z,88.89
2017-09-09T03:15:40.361Z,88.89
2017-09-09T03:16:40.262Z,89.03
2017-09-09T03:17:40.354Z,89.40
2017-09-09T03:18:40.261Z,89.78
2017-09-09T03:19:40.287Z,90.34
2017-09-09T03:20:40.291Z,91.01
2017-09-09T03:21:40.361Z,91.07
2017-09-09T03:22:40.303Z,90.90
2017-09-09T03:23:40.291Z,91.60
2017-09-09T03:24:40.330Z,91.17
2017-09-09T03:25:40.297Z,91.47
2017-09-09T03:26:40.355Z,91.44
2017-09-09T03:27:40.296Z,91.07
2017-09-09T03:28:40.290Z,91.65
2017-09-09T03:29:40.356Z,91.30
2017-09-09T03:30:40.299Z,91.65
2017-09-09T03:31:40.292Z,92.57
2017-09-09T03:32:40.367Z,92.57
2017-09-09T03:33:40.331Z,92.91
2017-09-09T03:34:40.368Z,92.95
2017-09-09T03:35:40.297Z,93.54
2017-09-09T03:36:40.333Z,93.64
2017-09-09T03:37:40.363Z,93.70
2017-09-09T03:38:40.279Z,94.29
2017-09-09T03:39:40.364Z,93.78
2017-09-09T03:40:40.335Z,94.04
2017-09-09T03:41:40.311Z,93.89
2017-09-09T03:42:40.372Z,93.21
2017-09-09T03:43:40.301Z,93.81
2017-09-09T03:44:40.302Z,93.70
2017-09-09T03:45:40.373Z,93.81
2017-09-09T03:46:40.372Z,94.04
2017-09-09T03:47:40.308Z,94.34
2017-09-09T03:48:40.288Z,94.42
2017-09-09T03:49:40.301Z,93.99
2017-09-09T03:50:40.380Z,94.80
2017-09-09T03:51:40.378Z,94.96
2017-09-09T03:52:40.383Z,94.04
2017-09-09T03:53:40.382Z,94.23
2017-09-09T03:54:40.304Z,93.96
2017-09-09T03:55:40.378Z,94.15
2017-09-09T03:56:40.320Z,93.70
2017-09-09T03:57:40.318Z,93.81
2017-09-09T03:58:40.285Z,93.99
2017-09-09T03:59:40.337Z,93.70
2017-09-09T04:00:40.312Z,93.54
2017-09-09T04:01:40.311Z,93.10
2017-09-09T04:02:40.315Z,93.29
2017-09-09T04:03:40.386Z,92.84
2017-09-09T04:04:40.377Z,92.62
2017-09-09T04:05:40.294Z,92.99
2017-09-09T04:06:40.346Z,93.02
2017-09-09T04:07:40.329Z,93.13
2017-09-09T04:08:40.291Z,93.21
2017-09-09T04:09:40.359Z,92.32
2017-09-09T04:10:40.362Z,92.91
2017-09-09T04:11:40.353Z,92.57
2017-09-09T04:12:40.294Z,91.84
2017-09-09T04:13:40.332Z,91.52
2017-09-09T04:14:40.356Z,91.20
2017-09-09T04:15:40.297Z,91.44
2017-09-09T04:16:40.302Z,91.33
2017-09-09T04:17:40.297Z,91.47
2017-09-09T04:18:40.301Z,91.41
2017-09-09T04:19:40.339Z,91.38
2017-09-09T04:20:40.397Z,90.96
2017-09-09T04:21:40.364Z,91.11
2017-09-09T04:22:40.321Z,91.07
2017-09-09T04:23:40.352Z,91.20
2017-09-09T04:24:40.395Z,91.09
2017-09-09T04:25:40.355Z,90.45
2017-09-09T04:26:40.355Z,89.94
2017-09-09T04:27:40.306Z,89.40
2017-09-09T04:28:40.403Z,89.32
2017-09-09T04:29:40.335Z,89.56
2017-09-09T04:30:40.351Z,89.59
2017-09-09T04:31:40.404Z,89.27
2017-09-09T04:32:40.305Z,89.56
2017-09-09T04:33:40.328Z,89.00
2017-09-09T04:34:40.393Z,89.19
2017-09-09T04:35:40.401Z,89.22
2017-09-09T04:36:40.361Z,89.08
2017-09-09T04:37:40.398Z,89.16
2017-09-09T04:38:40.366Z,89.11
2017-09-09T04:39:40.329Z,88.84
2017-09-09T04:40:40.402Z,88.89
2017-09-09T04:41:40.413Z,89.16
2017-09-09T04:42:40.347Z,89.19
2017-09-09T04:43:40.315Z,88.46
2017-09-09T04:44:40.373Z,88.50
2017-09-09T04:45:40.385Z,88.09
2017-09-09T04:46:40.336Z,88.31
2017-09-09T04:47:40.379Z,88.79
2017-09-09T04:48:40.316Z,87.53
2017-09-09T04:49:40.321Z,88.17
2017-09-09T04:50:40.349Z,87.96
2017-09-09T04:51:40.356Z,88.39
2017-09-09T04:52:40.377Z,88.09
2017-09-09T04:53:40.338Z,88.50
2017-09-09T04:54:40.396Z,88.50
2017-09-09T04:55:40.349Z,88.76
2017-09-09T04:56:40.419Z,88.73
2017-09-09T04:57:40.373Z,88.25
2017-09-09T04:58:40.353Z,87.85
2017-09-09T04:59:40.329Z,88.62
2017-09-09T05:00:40.345Z,88.46
2017-09-09T05:01:40.411Z,88.84
2017-09-09T05:02:40.355Z,88.76
2017-09-09T05:03:40.418Z,88.68
2017-09-09T05:04:40.347Z,87.93
2017-09-09T05:05:40.348Z,88.28
2017-09-09T05:06:40.365Z,87.56
2017-09-09T05:07:40.325Z,87.88
2017-09-09T05:08:40.400Z,88.17
2017-09-09T05:09:40.356Z,87.51
2017-09-09T05:10:40.380Z,87.72
2017-09-09T05:11:40.422Z,87.45
2017-09-09T05:12:40.386Z,86.87
2017-09-09T05:13:40.400Z,87.18
2017-09-09T05:14:40.368Z,87.24
2017-09-09T05:15:40.332Z,87.18
2017-09-09T05:16:40.396Z,87.59
2017-09-09T05:17:40.338Z,87.98
2017-09-09T05:18:40.371Z,87.18
2017-09-09T05:19:40.424Z,87.05
2017-09-09T05:20:40.336Z,86.30
2017-09-09T05:21:40.402Z,86.76
2017-09-09T05:22:40.408Z,86.91
2017-09-09T05:23:40.401Z,86.52
2017-09-09T05:24:40.432Z,86.54
2017-09-09T05:25:40.437Z,86.46
2017-09-09T05:26:40.376Z,86.44
2017-09-09T05:27:40.399Z,85.48
2017-09-09T05:28:40.425Z,85.85
2017-09-09T05:29:40.436Z,85.77
2017-09-09T05:30:40.364Z,86.15
2017-09-09T05:31:40.339Z,85.48
2017-09-09T05:32:40.340Z,85.66
2017-09-09T05:33:40.499Z,85.69
2017-09-09T05:34:40.428Z,86.17
2017-09-09T05:35:40.417Z,86.33
2017-09-09T05:36:40.409Z,86.46
2017-09-09T05:37:40.378Z,86.12
2017-09-09T05:38:40.433Z,86.07
2017-09-09T05:39:40.439Z,86.09
2017-09-09T05:40:40.437Z,85.88
2017-09-09T05:41:40.376Z,85.16
2017-09-09T05:43:40.378Z,86.28
2017-09-09T05:44:40.436Z,86.01
2017-09-09T05:45:40.351Z,85.40
2017-09-09T05:46:40.349Z,85.99
2017-09-09T05:47:40.400Z,85.61
2017-09-09T05:48:40.347Z,85.80
2017-09-09T05:49:40.388Z,85.61
2017-09-09T05:50:40.402Z,85.77
2017-09-09T05:51:40.412Z,86.01
2017-09-09T05:52:40.442Z,86.04
2017-09-09T05:53:40.412Z,85.50
2017-09-09T05:54:40.355Z,85.21
2017-09-09T05:55:40.375Z,85.05
2017-09-09T05:56:40.385Z,85.16
2017-09-09T05:57:40.415Z,85.19
2017-09-09T05:58:40.421Z,84.36
2017-09-09T05:59:40.362Z,84.74
2017-09-09T06:00:40.418Z,85.27
2017-09-09T06:01:40.426Z,85.05
2017-09-09T06:02:40.421Z,85.05
2017-09-09T06:03:40.398Z,85.19
2017-09-09T06:04:40.378Z,85.05
2017-09-09T06:05:40.397Z,85.50
2017-09-09T06:06:40.397Z,85.30
2017-09-09T06:07:40.360Z,85.48
2017-09-09T06:08:40.382Z,85.48
2017-09-09T06:09:40.422Z,84.68
2017-09-09T06:10:40.452Z,85.40
2017-09-09T06:11:40.394Z,85.64
2017-09-09T06:12:40.455Z,85.93
2017-09-09T06:13:40.414Z,86.84
2017-09-09T06:14:40.455Z,86.36
2017-09-09T06:15:40.406Z,85.77
2017-09-09T06:16:40.386Z,85.58
2017-09-09T06:17:40.424Z,85.91
2017-09-09T06:18:40.367Z,87.05
2017-09-09T06:19:40.421Z,85.64
2017-09-09T06:20:40.383Z,87.43
2017-09-09T06:21:40.430Z,87.53
2017-09-09T06:22:40.366Z,88.84
2017-09-09T06:23:40.389Z,88.20
2017-09-09T06:24:40.380Z,88.89
2017-09-09T06:25:40.423Z,87.18
2017-09-09T06:26:40.427Z,87.74
2017-09-09T06:27:40.389Z,88.23
2017-09-09T06:28:40.434Z,89.06
2017-09-09T06:29:40.407Z,88.31
2017-09-09T06:30:40.432Z,89.48
2017-09-09T06:31:40.376Z,90.05
2017-09-09T06:32:40.442Z,89.37
2017-09-09T06:33:40.431Z,88.92
2017-09-09T06:34:40.466Z,89.43
2017-09-09T06:35:40.397Z,89.56
2017-09-09T06:36:40.374Z,89.32
2017-09-09T06:37:40.410Z,90.45
2017-09-09T06:38:40.401Z,91.09
2017-09-09T06:39:40.449Z,91.55
2017-09-09T06:40:40.374Z,91.09
2017-09-09T06:41:40.382Z,91.86
2017-09-09T06:42:40.405Z,91.95
2017-09-09T06:43:40.474Z,91.65
2017-09-09T06:44:40.381Z,91.82
2017-09-09T06:45:40.453Z,91.20
2017-09-09T06:46:40.436Z,91.55
2017-09-09T06:47:40.453Z,91.44
2017-09-09T06:48:40.479Z,92.35
2017-09-09T06:49:40.449Z,91.65
2017-09-09T06:50:40.477Z,91.44
2017-09-09T06:51:40.447Z,91.33
2017-09-09T06:52:40.480Z,91.22
2017-09-09T06:53:40.419Z,91.30
2017-09-09T06:54:40.449Z,91.52
2017-09-09T06:55:40.460Z,91.01
2017-09-09T06:56:40.394Z,90.85
2017-09-09T06:57:40.463Z,91.60
2017-09-09T06:58:40.461Z,90.71
2017-09-09T06:59:40.451Z,91.38
2017-09-09T07:00:40.465Z,92.19
2017-09-09T07:01:40.395Z,92.11
2017-09-09T07:02:40.484Z,91.22
2017-09-09T07:03:40.416Z,91.30
2017-09-09T07:04:40.397Z,91.79
2017-09-09T07:05:40.395Z,92.78
2017-09-09T07:06:40.482Z,92.99
2017-09-09T07:07:40.429Z,93.78
2017-09-09T07:08:40.492Z,93.75
2017-09-09T07:09:40.428Z,94.18
2017-09-09T07:10:40.457Z,94.50
2017-09-09T07:11:40.487Z,95.53
2017-09-09T07:12:40.399Z,95.94
2017-09-09T07:13:40.488Z,95.10
2017-09-09T07:14:40.401Z,95.31
2017-09-09T07:15:40.473Z,94.80
2017-09-09T07:16:40.405Z,95.61
2017-09-09T07:17:40.454Z,96.07
2017-09-09T07:18:40.432Z,96.50
2017-09-09T07:19:40.493Z,96.45
2017-09-09T07:20:40.405Z,96.88
2017-09-09T07:21:40.403Z,96.85
2017-09-09T07:22:40.459Z,97.36
2017-09-09T07:23:40.495Z,97.18
2017-09-09T07:24:40.427Z,96.72
2017-09-09T07:25:40.463Z,96.42
2017-09-09T07:26:40.462Z,97.47
2017-09-09T07:27:40.498Z,97.34
2017-09-09T07:28:40.439Z,97.74
2017-09-09T07:29:40.471Z,97.99
2017-09-09T07:30:40.479Z,98.02
2017-09-09T07:31:40.433Z,97.99
2017-09-09T07:32:40.472Z,97.96
2017-09-09T07:33:40.444Z,98.23
2017-09-09T07:34:40.474Z,97.74
2017-09-09T07:35:40.414Z,97.66
2017-09-09T07:36:40.505Z,97.58
2017-09-09T07:37:40.420Z,97.74
2017-09-09T07:38:40.435Z,97.58
2017-09-09T07:39:40.409Z,97.74
2017-09-09T07:40:40.445Z,97.85
2017-09-09T07:41:40.425Z,97.61
2017-09-09T07:42:40.440Z,97.15
2017-09-09T07:43:40.505Z,97.34
2017-09-09T07:44:40.472Z,97.28
2017-09-09T07:45:40.412Z,97.50
2017-09-09T07:46:40.453Z,97.39
2017-09-09T07:47:40.493Z,96.91
2017-09-09T07:48:40.420Z,96.93
2017-09-09T07:49:40.419Z,96.28
2017-09-09T07:50:40.424Z,95.85
2017-09-09T07:51:40.423Z,95.58
2017-09-09T07:52:40.425Z,94.40
2017-09-09T07:53:40.482Z,94.93
2017-09-09T07:54:40.427Z,95.47
2017-09-09T07:55:40.426Z,95.50
2017-09-09T07:56:40.485Z,96.31
2017-09-09T07:57:40.456Z,96.09
2017-09-09T07:58:40.484Z,95.12
2017-09-09T07:59:40.465Z,95.12
2017-09-09T08:00:40.427Z,94.96
2017-09-09T08:01:40.469Z,94.34
2017-09-09T08:02:40.517Z,94.29
2017-09-09T08:03:40.428Z,94.53
2017-09-09T08:04:40.498Z,93.62
2017-09-09T08:05:40.431Z,93.21
2017-09-09T08:06:40.501Z,94.02
2017-09-09T08:07:40.451Z,94.56
2017-09-09T08:08:40.505Z,94.64
2017-09-09T08:09:40.438Z,94.26
2017-09-09T08:10:40.494Z,94.15
2017-09-09T08:11:40.490Z,94.10
2017-09-09T08:12:40.435Z,94.40
2017-09-09T08:13:40.476Z,94.56
2017-09-09T08:14:40.532Z,94.91
2017-09-09T08:15:40.466Z,93.89
2017-09-09T08:16:40.438Z,94.61
2017-09-09T08:17:40.527Z,95.23
2017-09-09T08:18:40.459Z,95.77
2017-09-09T08:19:40.497Z,96.17
2017-09-09T08:20:40.463Z,96.04
2017-09-09T08:21:40.441Z,95.75
2017-09-09T08:22:40.446Z,96.20
2017-09-09T08:23:40.463Z,97.04
2017-09-09T08:24:40.440Z,96.91
2017-09-09T08:25:40.494Z,97.39
2017-09-09T08:26:40.445Z,97.47
2017-09-09T08:27:40.442Z,97.80
2017-09-09T08:28:40.498Z,97.55
2017-09-09T08:29:40.464Z,98.12
2017-09-09T08:30:40.499Z,98.94
2017-09-09T08:31:40.445Z,98.61
2017-09-09T08:32:40.450Z,98.61
2017-09-09T08:33:40.478Z,98.83
2017-09-09T08:34:40.513Z,98.80
2017-09-09T08:35:40.507Z,98.75
2017-09-09T08:36:40.449Z,98.94
2017-09-09T08:37:40.449Z,99.59
2017-09-09T08:38:40.502Z,99.37
2017-09-09T08:39:40.469Z,95.64
2017-09-09T08:40:40.517Z,96.31
2017-09-09T08:41:40.451Z,97.07
2017-09-09T08:42:40.524Z,97.53
2017-09-09T08:43:40.504Z,98.29
2017-09-09T08:44:40.494Z,98.45
2017-09-09T08:45:40.543Z,97.31
2017-09-09T08:46:40.456Z,98.12
2017-09-09T08:47:40.510Z,97.55
2017-09-09T08:48:40.454Z,97.04
2017-09-09T08:49:40.513Z,97.72
2017-09-09T08:50:40.487Z,98.45
2017-09-09T08:51:40.480Z,99.48
2017-09-09T08:52:40.499Z,98.59
2017-09-09T08:53:40.480Z,98.12
2017-09-09T08:54:40.532Z,98.12
2017-09-09T08:55:40.485Z,98.07
2017-09-09T08:56:40.525Z,98.69
2017-09-09T08:57:40.463Z,99.02
2017-09-09T08:58:40.477Z,98.04
2017-09-09T08:59:40.520Z,98.31
2017-09-09T09:00:40.463Z,98.53
2017-09-09T09:01:40.576Z,98.34
2017-09-09T09:02:40.465Z,97.72
2017-09-09T09:03:40.534Z,98.45
2017-09-09T09:04:40.555Z,98.12
2017-09-09T09:05:40.460Z,97.61
2017-09-09T09:06:40.469Z,96.55
2017-09-09T09:07:40.536Z,97.80
2017-09-09T09:08:40.482Z,98.31
2017-09-09T09:09:40.503Z,97.88
2017-09-09T09:10:40.486Z,97.28
2017-09-09T09:11:40.563Z,97.04
2017-09-09T09:12:40.483Z,97.66
2017-09-09T09:13:40.557Z,97.42
2017-09-09T09:14:40.473Z,95.66
2017-09-09T09:15:40.503Z,95.39
2017-09-09T09:16:40.476Z,96.34
2017-09-09T09:17:40.559Z,95.58
2017-09-09T09:18:40.543Z,95.61
2017-09-09T09:19:40.475Z,95.39
2017-09-09T09:20:40.563Z,94.45
2017-09-09T09:21:40.564Z,95.56
2017-09-09T09:22:40.549Z,94.83
2017-09-09T09:23:40.535Z,94.18
2017-09-09T09:24:40.478Z,94.67
2017-09-09T09:25:40.547Z,97.23
2017-09-09T09:26:40.541Z,93.67
2017-09-09T09:27:40.515Z,94.23
2017-09-09T09:28:40.490Z,94.23
2017-09-09T09:29:40.512Z,94.34
2017-09-09T09:30:40.503Z,94.37
2017-09-09T09:31:40.540Z,93.89
2017-09-09T09:32:40.505Z,94.29
2017-09-09T09:33:40.536Z,90.05
2017-09-09T09:34:40.552Z,91.86
2017-09-09T09:35:40.540Z,89.56
2017-09-09T09:36:40.488Z,90.18
2017-09-09T09:37:40.559Z,91.44
2017-09-09T09:38:40.488Z,91.47
2017-09-09T09:39:40.524Z,90.66
2017-09-09T09:40:40.512Z,88.25
2017-09-09T09:41:40.546Z,88.09
2017-09-09T09:42:40.572Z,88.12
2017-09-09T09:43:40.561Z,88.73
2017-09-09T09:44:40.507Z,88.84
2017-09-09T09:45:40.486Z,88.15
2017-09-09T09:46:40.529Z,88.68
2017-09-09T09:47:40.551Z,92.32
2017-09-09T09:48:40.582Z,89.72
2017-09-09T09:49:40.491Z,90.36
2017-09-09T09:50:40.533Z,92.11
2017-09-09T09:51:40.495Z,90.36
2017-09-09T09:52:40.510Z,88.09
2017-09-09T09:53:40.517Z,91.25
2017-09-09T09:54:40.562Z,86.15
2017-09-09T09:55:40.518Z,87.93
2017-09-09T09:56:40.497Z,85.88
2017-09-09T09:57:40.495Z,84.20
2017-09-09T09:58:40.430Z,83.78
2017-09-09T09:59:40.413Z,84.31
2017-09-09T10:00:40.500Z,82.90
2017-09-09T10:01:40.380Z,82.56
2017-09-09T10:02:40.447Z,85.27
2017-09-09T10:03:40.430Z,86.46
2017-09-09T10:04:40.388Z,85.13
2017-09-09T10:05:40.438Z,83.57
2017-09-09T10:06:40.391Z,83.17
2017-09-09T10:07:40.365Z,82.43
2017-09-09T10:08:40.379Z,84.95
2017-09-09T10:09:40.446Z,82.32
2017-09-09T10:10:40.444Z,79.36
2017-09-09T10:11:40.404Z,82.64
2017-09-09T10:12:40.501Z,79.31
2017-09-09T10:13:40.378Z,79.65
2017-09-09T10:14:40.388Z,80.92
2017-09-09T10:15:40.389Z,83.59
2017-09-09T10:16:40.438Z,81.10
2017-09-09T10:17:40.442Z,78.73
2017-09-09T10:18:40.393Z,80.31
2017-09-09T10:19:40.485Z,79.33
2017-09-09T10:20:40.389Z,80.97
2017-09-09T10:21:40.393Z,81.66
2017-09-09T10:22:40.397Z,80.92
2017-09-09T10:23:40.405Z,82.24
2017-09-09T10:24:40.456Z,80.21
2017-09-09T10:25:40.496Z,81.42
2017-09-09T10:26:40.402Z,82.19
2017-09-09T10:27:40.459Z,80.87
2017-09-09T10:28:40.457Z,81.08
2017-09-09T10:29:40.404Z,79.23
2017-09-09T10:30:40.398Z,78.65
2017-09-09T10:31:40.400Z,80.73
2017-09-09T10:32:40.452Z,74.94
2017-09-09T10:33:40.408Z,78.20
2017-09-09T10:34:40.459Z,79.60
2017-09-09T10:35:40.496Z,76.67
2017-09-09T10:36:40.402Z,77.65
2017-09-09T10:37:40.499Z,77.33
2017-09-09T10:38:40.520Z,78.01
2017-09-09T10:39:40.507Z,79.60
2017-09-09T10:40:40.460Z,79.41
2017-09-09T10:41:40.404Z,78.44
2017-09-09T10:42:40.504Z,78.97
2017-09-09T10:43:40.458Z,80.39
2017-09-09T10:44:40.461Z,79.91
2017-09-09T10:45:40.524Z,77.97
2017-09-09T10:46:40.462Z,76.44
2017-09-09T10:47:40.505Z,78.94
2017-09-09T10:48:40.406Z,76.12
2017-09-09T10:49:40.469Z,75.86
2017-09-09T10:50:40.470Z,76.62
2017-09-09T10:51:40.504Z,78.59
2017-09-09T10:52:40.506Z,78.28
2017-09-09T10:53:40.424Z,76.23
2017-09-09T10:54:40.447Z,75.10
2017-09-09T10:55:40.479Z,76.54
2017-09-09T10:56:40.514Z,75.47
2017-09-09T10:57:40.416Z,77.07
2017-09-09T10:59:40.509Z,74.79
2017-09-09T11:00:40.513Z,75.73
2017-09-09T11:01:40.510Z,72.48
2017-09-09T11:02:40.439Z,71.65
2017-09-09T11:03:40.437Z,72.25
2017-09-09T11:04:40.416Z,73.48
2017-09-09T11:05:40.417Z,72.88
2017-09-09T11:06:40.509Z,72.88
2017-09-09T11:07:40.507Z,76.36
2017-09-09T11:08:40.515Z,73.66
2017-09-09T11:09:40.510Z,73.97
2017-09-09T11:10:40.515Z,73.24
2017-09-09T11:11:40.512Z,74.08
2017-09-09T11:12:40.540Z,72.43
2017-09-09T11:13:40.516Z,71.67
2017-09-09T11:14:40.440Z,74.13
2017-09-09T11:15:40.517Z,74.73
2017-09-09T11:16:40.517Z,71.62
2017-09-09T11:17:40.512Z,73.32
2017-09-09T11:18:40.513Z,72.53
2017-09-09T11:19:40.516Z,73.97
2017-09-09T11:20:40.516Z,73.69
2017-09-09T11:21:40.512Z,73.89
2017-09-09T11:22:40.517Z,73.53
2017-09-09T11:23:40.520Z,73.24
2017-09-09T11:24:40.517Z,72.77
2017-09-09T11:25:40.534Z,73.61
2017-09-09T11:26:40.519Z,73.66
2017-09-09T11:27:40.518Z,71.07
2017-09-09T11:28:40.521Z,71.91
2017-09-09T11:29:40.521Z,72.53
2017-09-09T11:30:40.519Z,74.18
2017-09-09T11:31:40.526Z,69.98
2017-09-09T11:32:40.523Z,70.64
2017-09-09T11:33:40.543Z,71.39
2017-09-09T11:34:40.524Z,69.80
2017-09-09T11:35:40.520Z,71.31
2017-09-09T11:36:40.527Z,71.00
2017-09-09T11:37:40.523Z,72.64
2017-09-09T11:38:40.479Z,68.81
2017-09-09T11:39:40.626Z,67.85
2017-09-09T11:40:40.502Z,69.93
2017-09-09T11:41:40.529Z,70.35
2017-09-09T11:42:40.528Z,70.68
2017-09-09T11:43:40.528Z,69.41
2017-09-09T11:44:40.531Z,69.23
2017-09-09T11:45:40.452Z,69.12
2017-09-09T11:46:40.529Z,69.36
2017-09-09T11:47:40.531Z,67.70
2017-09-09T11:48:40.528Z,69.34
2017-09-09T11:49:40.533Z,70.87
2017-09-09T11:50:40.533Z,71.28
2017-09-09T11:51:40.533Z,70.58
2017-09-09T11:52:40.533Z,69.96
2017-09-09T11:53:40.535Z,69.75
2017-09-09T11:54:40.536Z,71.78
2017-09-09T11:55:40.537Z,72.22
2017-09-09T11:56:40.535Z,68.94
2017-09-09T11:57:40.535Z,69.51
2017-09-09T11:58:40.535Z,70.48
2017-09-09T11:59:40.539Z,69.67
2017-09-09T12:00:40.540Z,71.28
2017-09-09T12:01:40.538Z,70.71
2017-09-09T12:02:40.538Z,72.01
2017-09-09T12:03:40.539Z,71.26
2017-09-09T12:04:40.541Z,72.61
2017-09-09T12:05:40.541Z,74.71
2017-09-09T12:06:40.542Z,74.40
2017-09-09T12:07:40.542Z,74.34
2017-09-09T12:08:40.543Z,75.05
2017-09-09T12:09:40.544Z,75.37
2017-09-09T12:10:40.549Z,74.55
2017-09-09T12:11:40.551Z,74.03
2017-09-09T12:12:40.544Z,75.47
2017-09-09T12:13:40.548Z,76.41
2017-09-09T12:14:40.520Z,76.49
2017-09-09T12:15:40.555Z,76.23
2017-09-09T12:16:40.546Z,74.05
2017-09-09T12:17:40.549Z,76.70
2017-09-09T12:18:40.550Z,74.60
2017-09-09T12:19:40.554Z,74.71
2017-09-09T12:20:40.550Z,74.73
2017-09-09T12:21:40.552Z,74.87
2017-09-09T12:22:40.552Z,75.21
2017-09-09T12:23:40.553Z,73.35
2017-09-09T12:24:40.554Z,73.71
2017-09-09T12:25:40.553Z,72.77
2017-09-09T12:26:40.552Z,73.85
2017-09-09T12:27:40.559Z,73.08
2017-09-09T12:28:40.555Z,73.71
2017-09-09T12:29:40.558Z,74.44
2017-09-09T12:30:40.561Z,72.51
2017-09-09T12:31:40.556Z,69.98
2017-09-09T12:32:40.557Z,68.27
2017-09-09T12:33:40.558Z,68.94
2017-09-09T12:34:40.558Z,69.62
2017-09-09T12:35:40.568Z,69.85
2017-09-09T12:36:40.560Z,68.68
2017-09-09T12:37:40.553Z,68.27
2017-09-09T12:38:40.566Z,66.92
2017-09-09T12:39:40.567Z,66.92
2017-09-09T12:40:40.565Z,67.41
2017-09-09T12:41:40.671Z,68.27
2017-09-09T12:42:40.570Z,66.97
2017-09-09T12:43:40.567Z,69.34
2017-09-09T12:44:40.565Z,67.64
2017-09-09T12:45:40.566Z,68.81
2017-09-09T12:46:40.572Z,66.71
2017-09-09T12:47:40.663Z,68.14
2017-09-09T12:48:40.631Z,64.90
2017-09-09T12:49:40.655Z,66.66
2017-09-09T12:50:40.662Z,67.77
2017-09-09T12:51:40.602Z,67.60
2017-09-09T12:52:40.602Z,69.59
2017-09-09T12:53:40.601Z,69.57
2017-09-09T12:54:40.601Z,70.56
2017-09-09T12:55:40.600Z,71.15